Time;durP1;ratioP1;P1;durP2;ratioP2;P2;SDS_P1;SDS_P2;PMS_P1;PMS_P2;Temp;Humidity;BMP_temperature;BMP_pressure;BME280_temperature;BME280_humidity;BME280_pressure;Samples;Min_cycle;Max_cycle;Signal;HPM_P1;HPM_P2
2022/05/02 00:00:28;;;;;;;13.68;11.80;;;11.90;99.90;;;;;;5093103;28;20240;-68
2022/05/02 00:02:55;;;;;;;15.55;13.32;;;11.90;99.90;;;;;;5093897;28;20202;-67
2022/05/02 00:05:23;;;;;;;15.55;13.18;;;11.80;99.90;;;;;;5093747;28;20225;-67
2022/05/02 00:07:50;;;;;;;14.35;12.27;;;11.80;99.90;;;;;;5092662;28;20279;-67
2022/05/02 00:10:17;;;;;;;15.50;12.45;;;11.90;99.90;;;;;;5093270;28;20304;-67
2022/05/02 00:12:45;;;;;;;17.27;12.98;;;11.90;99.90;;;;;;5093422;28;20205;-67
2022/05/02 00:15:12;;;;;;;16.65;13.82;;;11.90;99.90;;;;;;5093429;28;20656;-67
2022/05/02 00:17:57;;;;;;;15.50;12.60;;;11.90;99.90;;;;;;5093011;28;20205;-69
2022/05/02 00:20:26;;;;;;;16.63;13.02;;;11.80;99.90;;;;;;5093332;28;20579;-68
2022/05/02 00:22:53;;;;;;;14.45;12.35;;;11.80;99.90;;;;;;5092797;28;20214;-69
2022/05/02 00:25:20;;;;;;;17.38;12.63;;;11.80;99.90;;;;;;5092981;28;20234;-68
2022/05/02 00:27:48;;;;;;;14.88;11.68;;;11.70;99.90;;;;;;5092792;28;20312;-68
2022/05/02 00:30:15;;;;;;;15.52;13.65;;;11.70;99.90;;;;;;5092631;28;20634;-68
2022/05/02 00:32:43;;;;;;;14.52;12.50;;;11.70;99.90;;;;;;5092861;28;20297;-68
2022/05/02 00:35:11;;;;;;;14.32;12.80;;;11.60;99.90;;;;;;5092752;28;20226;-68
2022/05/02 00:37:40;;;;;;;18.52;13.00;;;11.60;99.90;;;;;;5092429;28;20242;-69
2022/05/02 00:40:09;;;;;;;15.25;13.30;;;11.60;99.90;;;;;;5092450;28;20206;-68
2022/05/02 00:42:36;;;;;;;16.00;13.13;;;11.70;99.90;;;;;;5092896;28;20198;-69
2022/05/02 00:45:06;;;;;;;17.15;12.98;;;11.70;99.90;;;;;;5092793;28;20217;-69
2022/05/02 00:47:33;;;;;;;15.13;11.95;;;11.70;99.90;;;;;;5092356;28;20637;-69
2022/05/02 00:50:00;;;;;;;15.95;12.00;;;11.60;99.90;;;;;;5092214;28;20206;-69
2022/05/02 00:52:27;;;;;;;17.27;13.35;;;11.70;99.90;;;;;;5092780;28;20202;-68
2022/05/02 00:54:55;;;;;;;14.32;12.82;;;11.70;99.90;;;;;;5092431;28;20708;-68
2022/05/02 00:57:23;;;;;;;16.05;13.25;;;11.60;99.90;;;;;;5092728;28;20213;-68
2022/05/02 00:59:49;;;;;;;17.58;13.77;;;11.60;99.90;;;;;;5092416;28;20200;-69
2022/05/02 01:02:16;;;;;;;16.42;14.32;;;11.60;99.90;;;;;;5092497;28;20209;-68
2022/05/02 01:04:44;;;;;;;14.85;12.82;;;11.50;99.90;;;;;;5092321;28;20230;-68
2022/05/02 01:07:11;;;;;;;16.85;13.30;;;11.50;99.90;;;;;;5092567;28;20228;-67
2022/05/02 01:09:41;;;;;;;16.52;13.65;;;11.50;99.90;;;;;;5092356;28;20198;-68
2022/05/02 01:12:12;;;;;;;18.80;14.85;;;11.50;99.90;;;;;;5092418;28;20234;-69
2022/05/02 01:14:40;;;;;;;17.17;14.15;;;11.50;99.90;;;;;;5092318;28;20775;-69
2022/05/02 01:17:07;;;;;;;17.40;13.88;;;11.50;99.90;;;;;;5092193;28;20298;-69
2022/05/02 01:19:34;;;;;;;16.33;14.15;;;11.40;99.90;;;;;;5093276;28;20587;-68
2022/05/02 01:22:04;;;;;;;17.52;13.85;;;11.40;99.90;;;;;;5096433;28;20545;-69
2022/05/02 01:24:36;;;;;;;16.65;13.35;;;11.40;99.90;;;;;;5096264;28;20228;-69
2022/05/02 01:27:04;;;;;;;19.20;15.05;;;11.40;99.90;;;;;;5096153;28;20217;-69
2022/05/02 01:29:32;;;;;;;16.40;13.52;;;11.50;99.90;;;;;;5096028;28;20213;-69
2022/05/02 01:31:59;;;;;;;16.65;14.40;;;11.50;99.90;;;;;;5096535;28;20206;-70
2022/05/02 01:34:26;;;;;;;17.52;14.00;;;11.50;99.90;;;;;;5096257;28;20233;-70
2022/05/02 01:36:53;;;;;;;16.58;14.00;;;11.50;99.90;;;;;;5096188;28;20314;-69
2022/05/02 01:39:21;;;;;;;18.00;14.50;;;11.50;99.90;;;;;;5096076;28;20545;-69
2022/05/02 01:41:49;;;;;;;18.15;14.30;;;11.60;99.90;;;;;;5095955;28;20202;-69
2022/05/02 01:44:16;;;;;;;15.95;13.85;;;11.70;99.90;;;;;;5095960;28;20202;-69
2022/05/02 01:46:43;;;;;;;19.00;14.75;;;11.70;99.90;;;;;;5095864;28;20206;-69
2022/05/02 01:49:10;;;;;;;19.05;14.50;;;11.70;99.90;;;;;;5096377;28;20222;-71
2022/05/02 01:51:37;;;;;;;19.42;14.38;;;11.80;99.90;;;;;;5095741;28;20209;-70
2022/05/02 01:54:04;;;;;;;19.90;14.55;;;11.90;99.90;;;;;;5095710;28;20206;-69
2022/05/02 01:56:32;;;;;;;17.95;14.15;;;11.80;99.90;;;;;;5095635;28;20202;-69
2022/05/02 01:58:58;;;;;;;18.00;15.15;;;11.70;99.90;;;;;;5095290;28;20193;-68
2022/05/02 02:01:25;;;;;;;20.08;15.40;;;11.70;99.90;;;;;;5095690;28;20208;-68
2022/05/02 02:03:52;;;;;;;19.50;15.10;;;11.60;99.90;;;;;;5095619;28;20212;-68
2022/05/02 02:06:18;;;;;;;24.17;15.60;;;11.60;99.90;;;;;;5095315;28;20231;-68
2022/05/02 02:08:45;;;;;;;19.40;15.53;;;11.60;99.90;;;;;;5095349;28;20219;-69
2022/05/02 02:11:12;;;;;;;18.92;14.80;;;11.60;99.90;;;;;;5095334;28;20934;-69
2022/05/02 02:13:40;;;;;;;19.88;17.40;;;11.70;99.90;;;;;;5095683;28;20425;-68
2022/05/02 02:16:09;;;;;;;19.48;15.57;;;11.70;99.90;;;;;;5096190;28;20225;-69
2022/05/02 02:18:38;;;;;;;20.42;15.63;;;11.70;99.90;;;;;;5096262;28;20224;-69
2022/05/02 02:21:05;;;;;;;20.50;15.57;;;11.60;99.90;;;;;;5096361;28;20656;-69
2022/05/02 02:23:32;;;;;;;17.75;15.27;;;11.60;99.90;;;;;;5096030;28;20206;-69
2022/05/02 02:25:59;;;;;;;17.60;14.68;;;11.70;99.90;;;;;;5096311;28;20244;-69
2022/05/02 02:28:26;;;;;;;20.10;14.55;;;11.70;99.90;;;;;;5095839;28;20230;-69
2022/05/02 02:30:54;;;;;;;22.05;15.50;;;11.70;99.90;;;;;;5095408;28;20721;-69
2022/05/02 02:33:21;;;;;;;18.63;15.02;;;11.80;99.90;;;;;;5095716;28;20216;-69
2022/05/02 02:35:48;;;;;;;18.65;14.75;;;11.70;99.90;;;;;;5096255;28;20233;-69
2022/05/02 02:38:15;;;;;;;20.60;15.20;;;11.80;99.90;;;;;;5096075;28;20533;-69
2022/05/02 02:40:42;;;;;;;19.33;14.27;;;11.80;99.90;;;;;;5096077;28;20198;-69
2022/05/02 02:43:10;;;;;;;19.00;14.30;;;11.80;99.90;;;;;;5095823;28;20205;-69
2022/05/02 02:45:37;;;;;;;17.70;13.50;;;11.80;99.90;;;;;;5095973;28;20225;-69
2022/05/02 02:48:06;;;;;;;18.73;14.70;;;11.80;99.90;;;;;;5095801;28;20222;-69
2022/05/02 02:50:32;;;;;;;18.73;14.07;;;11.80;99.90;;;;;;5095572;28;20575;-69
2022/05/02 02:52:59;;;;;;;19.90;13.77;;;11.80;99.90;;;;;;5095556;28;20233;-69
2022/05/02 02:55:26;;;;;;;17.67;14.48;;;11.90;99.90;;;;;;5095462;28;20779;-69
2022/05/02 02:57:53;;;;;;;19.15;15.20;;;11.90;99.90;;;;;;5095998;28;20202;-69
2022/05/02 03:00:21;;;;;;;17.75;13.85;;;11.80;99.90;;;;;;5096046;28;20288;-69
2022/05/02 03:02:49;;;;;;;18.30;15.00;;;11.80;99.90;;;;;;5095613;28;20283;-69
2022/05/02 03:08:02;;;;;;;20.77;14.80;;;11.80;99.90;;;;;;5095534;28;20359;-69
2022/05/02 03:10:29;;;;;;;19.52;15.45;;;11.80;99.90;;;;;;5095541;28;20224;-69
2022/05/02 03:12:56;;;;;;;17.50;14.40;;;11.70;99.90;;;;;;5095229;28;20656;-68
2022/05/02 03:15:23;;;;;;;18.77;15.57;;;11.70;99.90;;;;;;5095115;28;20226;-69
2022/05/02 03:17:50;;;;;;;17.85;14.10;;;11.60;99.90;;;;;;5095300;28;20198;-69
2022/05/02 03:20:19;;;;;;;21.70;16.65;;;11.50;99.90;;;;;;5095257;28;20679;-69
2022/05/02 03:22:45;;;;;;;19.67;15.70;;;11.40;99.90;;;;;;5094935;28;20206;-69
2022/05/02 03:25:12;;;;;;;23.20;16.40;;;11.30;99.90;;;;;;5095007;28;20580;-69
2022/05/02 03:27:39;;;;;;;22.30;17.58;;;11.20;99.90;;;;;;5095149;28;20226;-69
2022/05/02 03:30:07;;;;;;;19.92;15.13;;;11.30;99.90;;;;;;5094671;28;20214;-69
2022/05/02 03:32:34;;;;;;;20.38;15.05;;;11.40;99.90;;;;;;5094947;28;20687;-69
2022/05/02 03:35:01;;;;;;;16.63;14.65;;;11.50;99.90;;;;;;5094843;28;20313;-69
2022/05/02 03:37:29;;;;;;;19.08;15.15;;;11.60;99.90;;;;;;5094744;28;20205;-69
2022/05/02 03:39:56;;;;;;;18.05;14.60;;;11.60;99.90;;;;;;5094750;28;20220;-69
2022/05/02 03:42:23;;;;;;;20.20;14.35;;;11.60;99.90;;;;;;5094696;28;20201;-69
2022/05/02 03:44:49;;;;;;;19.63;15.07;;;11.60;99.90;;;;;;5094397;28;20319;-69
2022/05/02 03:47:16;;;;;;;21.48;15.73;;;11.70;99.90;;;;;;5094500;28;20213;-69
2022/05/02 03:49:43;;;;;;;17.30;14.65;;;11.70;99.90;;;;;;5094393;28;20325;-69
2022/05/02 03:52:10;;;;;;;20.48;16.30;;;11.60;99.90;;;;;;5094922;28;20686;-69
2022/05/02 03:54:38;;;;;;;18.55;14.63;;;11.50;99.90;;;;;;5094433;28;20308;-69
2022/05/02 03:57:05;;;;;;;20.38;15.20;;;11.60;99.90;;;;;;5094773;28;20204;-69
2022/05/02 03:59:32;;;;;;;20.33;16.33;;;11.60;99.90;;;;;;5094452;28;20194;-69
2022/05/02 04:01:59;;;;;;;20.48;15.57;;;11.70;99.90;;;;;;5094251;28;20205;-69
2022/05/02 04:04:25;;;;;;;17.00;14.25;;;11.80;99.90;;;;;;5094144;28;20226;-69
2022/05/02 04:06:52;;;;;;;19.45;14.90;;;11.90;99.90;;;;;;5094490;28;20198;-69
2022/05/02 04:09:19;;;;;;;21.17;16.33;;;11.90;99.90;;;;;;5094298;28;20247;-69
2022/05/02 04:11:47;;;;;;;22.95;16.05;;;12.00;99.90;;;;;;5094296;28;20236;-69
2022/05/02 04:14:14;;;;;;;18.25;15.30;;;11.90;99.90;;;;;;5093836;28;20679;-69
2022/05/02 04:16:41;;;;;;;19.98;15.88;;;11.90;99.90;;;;;;5093990;28;20204;-69
2022/05/02 04:19:08;;;;;;;22.38;15.82;;;11.90;99.90;;;;;;5094189;28;20198;-69
2022/05/02 04:21:34;;;;;;;20.65;15.90;;;12.00;99.90;;;;;;5094117;28;20205;-69
2022/05/02 04:24:01;;;;;;;20.27;15.02;;;12.00;99.90;;;;;;5093969;28;20213;-69
2022/05/02 04:26:28;;;;;;;21.10;15.77;;;12.00;99.90;;;;;;5094143;28;20202;-69
2022/05/02 04:28:56;;;;;;;18.52;15.77;;;12.00;99.90;;;;;;5093789;28;20224;-69
2022/05/02 04:31:23;;;;;;;18.40;15.50;;;12.10;99.90;;;;;;5093802;28;20770;-69
2022/05/02 04:33:50;;;;;;;18.15;14.52;;;12.20;99.90;;;;;;5093796;28;20575;-69
2022/05/02 04:36:17;;;;;;;19.05;15.13;;;12.10;99.90;;;;;;5093730;28;20226;-69
2022/05/02 04:38:43;;;;;;;19.52;14.98;;;12.10;99.90;;;;;;5093926;28;20198;-69
2022/05/02 04:41:13;;;;;;;19.05;15.35;;;12.10;99.90;;;;;;5093622;28;20747;-69
2022/05/02 04:43:40;;;;;;;18.60;15.88;;;11.90;99.90;;;;;;5093759;28;20197;-69
2022/05/02 04:46:09;;;;;;;20.00;16.70;;;11.80;99.90;;;;;;5093811;28;20218;-69
2022/05/02 04:48:36;;;;;;;21.30;16.10;;;11.70;99.90;;;;;;5093728;28;20225;-69
2022/05/02 04:51:02;;;;;;;20.10;16.05;;;11.70;99.90;;;;;;5093840;28;20199;-69
2022/05/02 04:53:29;;;;;;;22.25;16.40;;;11.80;99.90;;;;;;5093527;28;20212;-69
2022/05/02 04:55:56;;;;;;;22.25;16.63;;;11.90;99.90;;;;;;5092897;28;20228;-69
2022/05/02 04:58:23;;;;;;;21.77;16.23;;;11.90;99.90;;;;;;5093459;28;20208;-69
2022/05/02 05:00:50;;;;;;;21.08;16.70;;;11.90;99.90;;;;;;5093663;28;20202;-69
2022/05/02 05:03:18;;;;;;;21.27;16.83;;;11.90;99.90;;;;;;5093338;28;20205;-69
2022/05/02 05:05:44;;;;;;;21.75;16.48;;;12.00;99.90;;;;;;5093276;28;20218;-69
2022/05/02 05:08:11;;;;;;;19.48;15.90;;;12.00;99.90;;;;;;5093217;28;20209;-69
2022/05/02 05:10:48;;;;;;;20.65;17.60;;;12.00;99.90;;;;;;5093382;28;20287;-69
2022/05/02 05:13:19;;;;;;;20.77;16.77;;;11.70;99.90;;;;;;5093456;28;20611;-69
2022/05/02 05:16:20;;;;;;;22.13;17.30;;;11.80;99.90;;;;;;5093557;28;20218;-69
2022/05/02 05:19:03;;;;;;;26.27;18.15;;;11.90;99.90;;;;;;5093501;28;20229;-69
2022/05/02 05:21:41;;;;;;;21.40;17.35;;;11.80;99.90;;;;;;5094002;28;20287;-69
2022/05/02 05:24:43;;;;;;;24.65;18.10;;;11.70;99.90;;;;;;5093380;28;20236;-69
2022/05/02 05:27:24;;;;;;;23.95;18.27;;;11.60;99.90;;;;;;5093461;28;20708;-69
2022/05/02 05:30:02;;;;;;;25.25;19.00;;;11.40;99.90;;;;;;5093381;28;20224;-69
2022/05/02 05:32:35;;;;;;;30.52;19.60;;;11.30;99.90;;;;;;5093460;28;20190;-69
2022/05/02 05:35:07;;;;;;;24.60;18.95;;;11.10;99.90;;;;;;5093176;28;20226;-69
2022/05/02 05:37:51;;;;;;;28.15;19.80;;;11.10;99.90;;;;;;5093416;28;20200;-69
2022/05/02 05:40:24;;;;;;;26.92;20.02;;;11.10;99.90;;;;;;5093342;28;20209;-69
2022/05/02 05:43:01;;;;;;;25.75;20.13;;;11.00;99.90;;;;;;5093360;28;20208;-69
2022/05/02 05:45:39;;;;;;;26.30;21.00;;;11.10;99.90;;;;;;5093073;28;20228;-69
2022/05/02 05:48:14;;;;;;;25.80;19.33;;;11.10;99.90;;;;;;5092933;28;20225;-69
2022/05/02 05:50:52;;;;;;;24.95;20.15;;;11.20;99.90;;;;;;5093301;28;20202;-69
2022/05/02 05:53:32;;;;;;;24.60;19.45;;;11.40;99.90;;;;;;5093082;28;20205;-69
2022/05/02 05:56:13;;;;;;;24.10;19.17;;;11.40;99.90;;;;;;5093111;28;20226;-69
2022/05/02 05:58:51;;;;;;;23.15;18.85;;;11.60;99.90;;;;;;5093188;28;20198;-69
2022/05/02 06:01:30;;;;;;;26.35;19.80;;;11.50;99.90;;;;;;5093143;28;20201;-69
2022/05/02 06:04:03;;;;;;;27.63;20.20;;;11.40;99.90;;;;;;5092876;28;20259;-69
2022/05/02 06:06:32;;;;;;;26.38;19.45;;;11.40;99.90;;;;;;5093911;28;20273;-69
2022/05/02 06:09:00;;;;;;;25.20;19.10;;;11.40;99.90;;;;;;5096662;28;20222;-69
2022/05/02 06:11:28;;;;;;;24.00;18.65;;;11.60;99.90;;;;;;5096385;28;20202;-69
2022/05/02 06:13:57;;;;;;;26.13;18.77;;;11.70;99.90;;;;;;5096643;28;20206;-69
2022/05/02 06:19:16;;;;;;;23.60;18.17;;;12.00;99.90;;;;;;5096470;28;20205;-69
2022/05/02 06:21:45;;;;;;;21.83;18.00;;;12.20;99.90;;;;;;5096498;28;20210;-69
2022/05/02 06:24:13;;;;;;;22.80;18.15;;;12.30;99.90;;;;;;5096188;28;20230;-69
2022/05/02 06:26:41;;;;;;;24.80;19.33;;;12.30;99.90;;;;;;5096465;28;20288;-69
2022/05/02 06:29:09;;;;;;;28.15;19.27;;;12.20;99.90;;;;;;5096380;28;20225;-69
2022/05/02 06:31:39;;;;;;;28.52;19.52;;;12.20;99.90;;;;;;5096187;28;20583;-69
2022/05/02 06:34:07;;;;;;;24.02;18.85;;;12.20;99.90;;;;;;5095744;28;20202;-70
2022/05/02 06:37:08;;;;;;;23.88;18.67;;;12.10;99.90;;;;;;5096212;28;20212;-69
2022/05/02 06:39:50;;;;;;;23.58;18.48;;;12.10;99.90;;;;;;5090848;28;20202;-69
2022/05/02 06:42:30;;;;;;;30.98;19.90;;;12.10;99.90;;;;;;5096017;28;20208;-69
2022/05/02 06:45:07;;;;;;;23.05;19.08;;;12.10;99.90;;;;;;5095504;28;20226;-69
2022/05/02 06:47:46;;;;;;;24.67;19.55;;;12.20;99.90;;;;;;5096045;28;20196;-69
2022/05/02 06:50:18;;;;;;;24.02;19.02;;;12.20;99.90;;;;;;5095915;28;20253;-69
2022/05/02 06:52:56;;;;;;;25.38;20.02;;;12.30;99.90;;;;;;5095613;28;20202;-69
2022/05/02 06:55:31;;;;;;;26.77;20.70;;;12.40;99.90;;;;;;5095726;28;20222;-69
2022/05/02 06:58:13;;;;;;;30.45;20.15;;;12.30;99.90;;;;;;5095531;28;20192;-69
2022/05/02 07:00:48;;;;;;;23.38;19.08;;;12.40;99.90;;;;;;5095762;28;20188;-69
2022/05/02 07:03:42;;;;;;;24.02;19.15;;;12.50;99.90;;;;;;5095298;28;20678;-69
2022/05/02 07:06:16;;;;;;;23.80;18.15;;;12.50;99.90;;;;;;5095592;28;20575;-69
2022/05/02 07:08:51;;;;;;;25.20;19.45;;;12.60;99.90;;;;;;5095494;28;20201;-69
2022/05/02 07:11:21;;;;;;;25.13;18.75;;;12.80;99.90;;;;;;5095190;28;20201;-69
2022/05/02 07:14:02;;;;;;;25.25;19.30;;;12.80;99.90;;;;;;5095290;28;20292;-68
2022/05/02 07:16:32;;;;;;;27.42;22.33;;;12.90;99.90;;;;;;5095786;28;20225;-69
2022/05/02 07:19:28;;;;;;;28.75;20.92;;;13.00;99.90;;;;;;5095186;28;20198;-69
2022/05/02 07:21:57;;;;;;;24.80;18.30;;;12.90;99.90;;;;;;5087168;28;20202;-69
2022/05/02 07:24:46;;;;;;;26.95;19.40;;;13.00;99.90;;;;;;5095521;28;20202;-69
2022/05/02 07:27:27;;;;;;;24.50;19.20;;;13.10;99.90;;;;;;5095745;28;20213;-69
2022/05/02 07:29:58;;;;;;;24.35;19.83;;;13.10;99.90;;;;;;5095190;28;20234;-69
2022/05/02 07:32:27;;;;;;;26.20;20.45;;;13.10;99.90;;;;;;5095210;28;20202;-69
2022/05/02 07:34:56;;;;;;;23.80;18.95;;;13.10;99.90;;;;;;5094865;28;20225;-69
2022/05/02 07:37:23;;;;;;;25.23;20.17;;;13.30;99.90;;;;;;5095027;28;20545;-69
2022/05/02 07:39:53;;;;;;;23.90;18.95;;;13.40;99.90;;;;;;5094673;28;20198;-69
2022/05/02 07:42:20;;;;;;;24.75;18.55;;;13.50;99.90;;;;;;5094741;28;20684;-69
2022/05/02 07:44:51;;;;;;;26.98;19.55;;;13.50;99.90;;;;;;5094352;28;20223;-69
2022/05/02 07:47:19;;;;;;;26.63;19.42;;;13.60;99.90;;;;;;5094592;28;20737;-69
2022/05/02 07:49:49;;;;;;;24.17;19.85;;;13.70;99.90;;;;;;5094683;28;20668;-69
2022/05/02 07:52:24;;;;;;;23.02;17.83;;;13.80;99.90;;;;;;5094507;28;20203;-69
2022/05/02 07:54:53;;;;;;;26.90;20.30;;;14.00;99.90;;;;;;5094320;28;20317;-69
2022/05/02 07:57:23;;;;;;;23.65;19.40;;;14.10;99.90;;;;;;5094351;28;20294;-69
2022/05/02 07:59:52;;;;;;;24.60;20.88;;;14.20;99.90;;;;;;5094357;28;20210;-69
2022/05/02 08:02:20;;;;;;;25.75;18.25;;;14.20;99.90;;;;;;5094566;28;20199;-69
2022/05/02 08:04:49;;;;;;;24.75;19.55;;;14.30;99.90;;;;;;5094127;28;20225;-69
2022/05/02 08:07:22;;;;;;;22.55;19.20;;;14.50;99.90;;;;;;5094462;28;20231;-69
2022/05/02 08:10:18;;;;;;;21.10;18.83;;;15.70;99.90;;;;;;5094403;28;20297;-69
2022/05/02 08:12:53;;;;;;;20.90;18.27;;;17.70;99.90;;;;;;5094159;28;20666;-70
2022/05/02 08:15:25;;;;;;;20.20;18.00;;;19.70;99.90;;;;;;5093937;28;20983;-70
2022/05/02 08:18:05;;;;;;;22.00;18.60;;;21.20;96.10;;;;;;5094319;28;20433;-70
2022/05/02 08:20:40;;;;;;;22.03;19.57;;;22.30;91.20;;;;;;5094437;28;20435;-70
2022/05/02 08:29:24;;;;;;;20.77;18.57;;;22.80;85.30;;;;;;5093146;28;20478;-70
2022/05/02 08:31:55;;;;;;;21.07;18.87;;;22.60;84.60;;;;;;5094081;28;20440;-70
2022/05/02 08:34:30;;;;;;;23.23;20.63;;;21.40;86.70;;;;;;5093941;28;20445;-70
2022/05/02 08:37:10;;;;;;;21.77;19.47;;;20.30;90.10;;;;;;5093796;28;20912;-70
2022/05/02 08:39:45;;;;;;;21.87;19.67;;;19.80;91.20;;;;;;5093984;28;20524;-69
2022/05/02 08:42:57;;;;;;;21.50;19.13;;;18.90;92.60;;;;;;5093975;28;20444;-69
2022/05/02 08:46:17;;;;;;;22.00;18.38;;;18.00;95.00;;;;;;5045965;28;20225;-70
2022/05/02 08:49:36;;;;;;;22.30;18.98;;;17.60;96.70;;;;;;5093840;28;20249;-69
2022/05/02 08:52:50;;;;;;;20.38;17.48;;;17.20;96.00;;;;;;5093771;28;20223;-69
2022/05/02 08:55:40;;;;;;;19.58;15.32;;;17.20;97.00;;;;;;5093371;28;20257;-70
2022/05/02 08:58:48;;;;;;;20.50;18.25;;;17.50;97.40;;;;;;5093516;28;20202;-69
2022/05/02 09:01:44;;;;;;;24.65;19.33;;;18.10;96.10;;;;;;5093712;28;20209;-69
2022/05/02 09:04:40;;;;;;;20.67;17.20;;;18.90;94.70;;;;;;5062989;28;20201;-70
2022/05/02 09:07:48;;;;;;;19.47;17.47;;;20.60;92.10;;;;;;5093778;28;20960;-70
2022/05/02 09:10:23;;;;;;;19.00;17.10;;;22.80;82.20;;;;;;5094215;28;20574;-71
2022/05/02 09:13:35;;;;;;;18.90;17.10;;;24.50;75.80;;;;;;5094110;28;20512;-70
2022/05/02 09:16:37;;;;;;;17.43;15.80;;;24.80;71.90;;;;;;5036958;28;20561;-72
2022/05/02 09:19:35;;;;;;;18.63;16.80;;;25.80;68.60;;;;;;5088130;28;20934;-70
2022/05/02 09:22:35;;;;;;;19.20;17.27;;;25.30;61.50;;;;;;5093492;28;20535;-70
2022/05/02 09:25:07;;;;;;;17.90;16.10;;;24.20;65.10;;;;;;5093499;28;20460;-70
2022/05/02 09:27:54;;;;;;;17.23;15.63;;;24.90;64.40;;;;;;5093422;28;20479;-70
2022/05/02 09:30:58;;;;;;;14.57;13.27;;;25.20;62.20;;;;;;5093064;28;20487;-70
2022/05/02 09:33:43;;;;;;;14.47;13.17;;;25.40;59.40;;;;;;5090741;28;20444;-70
2022/05/02 09:36:26;;;;;;;14.43;13.00;;;26.40;56.50;;;;;;5093408;28;20464;-70
2022/05/02 09:39:08;;;;;;;14.20;12.93;;;25.60;57.00;;;;;;5093354;28;20443;-70
2022/05/02 09:42:11;;;;;;;13.73;12.33;;;24.20;60.60;;;;;;5095920;28;20855;-70
2022/05/02 09:51:44;;;;;;;15.47;12.60;;;22.50;65.00;;;;;;5079352;28;20512;-70
2022/05/02 09:56:37;;;;;;;13.90;12.60;;;23.30;64.10;;;;;;5096863;28;20457;-70
2022/05/02 09:57:15;;;;;;;14.63;13.20;;;24.70;61.90;;;;;;5096518;28;20944;-70
2022/05/02 09:59:47;;;;;;;13.20;12.00;;;25.60;58.70;;;;;;5096696;28;20782;-70
2022/05/02 10:02:21;;;;;;;13.07;11.77;;;25.50;58.00;;;;;;5097385;28;20528;-70
2022/05/02 10:04:59;;;;;;;11.40;10.40;;;26.40;57.50;;;;;;5102334;28;20474;-70
2022/05/02 10:07:28;;;;;;;13.17;11.97;;;27.60;55.20;;;;;;5095849;28;20450;-71
2022/05/02 10:10:08;;;;;;;13.33;12.17;;;28.40;53.20;;;;;;5095394;28;21020;-71
2022/05/02 10:12:46;;;;;;;13.83;12.63;;;28.30;51.90;;;;;;5095230;28;20446;-70
2022/05/02 10:15:30;;;;;;;13.33;12.13;;;28.90;49.70;;;;;;5095132;28;20560;-70
2022/05/02 10:18:25;;;;;;;13.63;12.47;;;27.80;50.70;;;;;;5094871;28;20786;-71
2022/05/02 10:21:04;;;;;;;13.07;11.93;;;27.50;51.00;;;;;;5095155;28;20441;-72
2022/05/02 10:24:05;;;;;;;13.00;11.87;;;28.10;50.60;;;;;;5095456;28;20447;-70
2022/05/02 10:26:38;;;;;;;12.70;11.60;;;29.00;48.40;;;;;;5083886;28;20451;-71
2022/05/02 10:29:42;;;;;;;11.97;10.97;;;30.10;47.20;;;;;;5094897;28;20448;-70
2022/05/02 10:32:20;;;;;;;12.70;11.60;;;29.70;46.50;;;;;;5079510;28;20463;-70
2022/05/02 10:34:47;;;;;;;11.70;10.70;;;28.50;45.80;;;;;;5094878;28;20551;-69
2022/05/02 10:37:16;;;;;;;12.47;11.23;;;26.80;49.50;;;;;;5094622;28;21072;-70
2022/05/02 10:39:47;;;;;;;10.90;9.90;;;26.20;51.70;;;;;;5095110;28;20454;-69
2022/05/02 10:42:17;;;;;;;10.17;9.30;;;25.60;52.00;;;;;;5094921;28;20452;-70
2022/05/02 10:44:55;;;;;;;9.07;8.37;;;26.60;51.80;;;;;;5094861;28;20503;-70
2022/05/02 10:47:27;;;;;;;8.20;7.60;;;26.80;48.40;;;;;;5094839;28;20436;-70
2022/05/02 10:50:05;;;;;;;7.53;7.00;;;26.40;49.10;;;;;;5094515;28;20482;-70
2022/05/02 10:52:47;;;;;;;9.30;8.40;;;26.70;51.10;;;;;;5093928;28;20505;-70
2022/05/02 10:55:20;;;;;;;8.70;7.90;;;26.90;49.60;;;;;;5094369;28;20491;-70
2022/05/02 10:57:52;;;;;;;9.00;8.20;;;27.90;49.80;;;;;;5094536;28;20475;-71
2022/05/02 11:00:20;;;;;;;9.67;8.87;;;28.40;48.10;;;;;;5094199;28;20448;-71
2022/05/02 11:03:01;;;;;;;10.00;9.10;;;28.00;47.00;;;;;;5094534;28;20444;-71
2022/05/02 11:05:32;;;;;;;8.90;8.20;;;27.90;47.50;;;;;;5094012;28;20463;-71
2022/05/02 11:08:09;;;;;;;9.57;8.77;;;27.50;48.50;;;;;;5093953;28;20931;-71
2022/05/02 11:10:43;;;;;;;9.43;8.63;;;27.00;48.60;;;;;;5094018;28;20577;-70
2022/05/02 11:13:26;;;;;;;9.13;8.43;;;26.40;48.10;;;;;;5093811;28;20444;-71
2022/05/02 11:16:03;;;;;;;8.83;8.13;;;25.60;50.20;;;;;;5094262;28;20483;-70
2022/05/02 11:21:41;;;;;;;8.83;8.10;;;25.10;50.80;;;;;;5093778;28;20427;-70
2022/05/02 11:24:30;;;;;;;9.93;9.03;;;24.30;51.80;;;;;;5093516;28;20932;-71
2022/05/02 11:27:09;;;;;;;10.00;9.10;;;23.50;54.70;;;;;;5093580;28;20943;-71
2022/05/02 11:29:49;;;;;;;9.40;8.60;;;23.10;56.10;;;;;;5093464;28;20462;-69
2022/05/02 11:32:26;;;;;;;9.47;8.60;;;22.90;56.40;;;;;;5093556;28;20936;-70
2022/05/02 11:35:03;;;;;;;10.07;9.17;;;22.80;56.40;;;;;;5093200;28;20467;-69
2022/05/02 11:37:37;;;;;;;10.20;9.20;;;22.00;56.50;;;;;;5093433;28;20443;-69
2022/05/02 11:40:08;;;;;;;9.80;8.80;;;21.40;58.80;;;;;;5093385;28;20934;-70
2022/05/02 11:42:42;;;;;;;10.53;9.53;;;21.00;59.50;;;;;;5093953;28;20455;-70
2022/05/02 11:45:11;;;;;;;9.63;8.63;;;20.60;61.10;;;;;;5093255;28;20473;-70
2022/05/02 11:48:09;;;;;;;9.90;9.00;;;20.00;62.20;;;;;;5093250;28;20448;-70
2022/05/02 11:50:43;;;;;;;9.10;8.20;;;19.90;64.00;;;;;;5093063;28;20478;-68
2022/05/02 11:53:13;;;;;;;9.90;9.00;;;19.90;64.70;;;;;;5093093;28;20449;-71
2022/05/02 11:55:41;;;;;;;9.20;8.37;;;19.90;64.90;;;;;;5093113;28;20477;-75
2022/05/02 11:58:20;;;;;;;9.73;8.73;;;19.80;65.30;;;;;;5093113;28;20455;-69
2022/05/02 12:00:52;;;;;;;9.57;8.67;;;19.90;64.30;;;;;;5093032;28;20818;-70
2022/05/02 12:03:24;;;;;;;9.10;8.20;;;20.00;66.00;;;;;;5092871;28;20446;-70
2022/05/02 12:05:52;;;;;;;9.57;8.67;;;20.40;65.30;;;;;;5092787;28;20462;-70
2022/05/02 12:08:26;;;;;;;8.63;7.90;;;20.60;65.60;;;;;;5093166;28;20447;-76
2022/05/02 12:11:05;;;;;;;9.60;8.70;;;20.80;63.70;;;;;;5093321;28;20476;-70
2022/05/02 12:13:36;;;;;;;8.50;7.70;;;21.10;63.50;;;;;;5093247;28;20448;-72
2022/05/02 12:16:05;;;;;;;8.30;7.53;;;21.40;63.80;;;;;;5092706;28;20965;-70
2022/05/02 12:18:44;;;;;;;8.60;6.80;;;21.50;62.40;;;;;;5092835;28;20468;-70
2022/05/02 12:21:16;;;;;;;7.17;6.30;;;21.60;59.80;;;;;;5092694;28;20436;-70
2022/05/02 12:23:44;;;;;;;6.67;6.17;;;21.70;58.70;;;;;;5092405;28;20442;-70
2022/05/02 12:26:18;;;;;;;7.80;7.20;;;22.00;58.30;;;;;;5092669;28;20468;-71
2022/05/02 12:28:48;;;;;;;8.37;7.57;;;22.20;58.30;;;;;;5092493;28;20517;-71
2022/05/02 12:31:17;;;;;;;7.80;7.10;;;22.00;58.20;;;;;;5092598;28;20558;-71
2022/05/02 12:33:50;;;;;;;7.63;6.93;;;21.90;58.40;;;;;;5092306;28;20930;-71
2022/05/02 12:36:19;;;;;;;8.40;7.70;;;21.70;60.20;;;;;;5092240;28;20548;-71
2022/05/02 12:39:04;;;;;;;8.30;7.50;;;21.50;60.60;;;;;;5092638;28;20444;-70
2022/05/02 12:41:44;;;;;;;7.80;7.10;;;21.30;62.00;;;;;;5092344;28;20473;-70
2022/05/02 12:44:14;;;;;;;7.70;7.10;;;21.30;63.40;;;;;;5092525;28;20840;-71
2022/05/02 12:46:45;;;;;;;8.30;7.50;;;21.10;63.00;;;;;;5092328;28;20953;-72
2022/05/02 12:49:19;;;;;;;7.83;7.13;;;21.20;62.20;;;;;;5092412;28;20458;-70
2022/05/02 12:51:52;;;;;;;7.80;7.00;;;21.30;61.00;;;;;;5092440;28;20489;-69
2022/05/02 12:54:21;;;;;;;8.13;7.43;;;20.90;62.20;;;;;;5092095;28;20442;-70
2022/05/02 13:00:30;;;;;;;7.23;6.57;;;20.80;62.70;;;;;;5092183;28;20953;-70
2022/05/02 13:02:35;;;;;;;6.87;6.30;;;21.00;63.20;;;;;;5092064;28;20817;-70
2022/05/02 13:05:07;;;;;;;7.00;6.40;;;21.10;62.70;;;;;;5091910;28;20466;-70
2022/05/02 13:07:46;;;;;;;6.60;6.00;;;21.20;63.10;;;;;;5092071;28;20495;-70
2022/05/02 13:10:21;;;;;;;6.30;5.80;;;21.20;61.20;;;;;;5091970;28;20538;-71
2022/05/02 13:13:10;;;;;;;6.00;5.50;;;21.30;60.50;;;;;;5092283;28;20459;-71
2022/05/02 13:15:42;;;;;;;6.00;5.50;;;21.40;59.90;;;;;;5088362;28;20470;-70
2022/05/02 13:18:12;;;;;;;6.53;5.93;;;21.40;60.40;;;;;;5096187;28;20800;-71
2022/05/02 13:20:40;;;;;;;7.03;6.43;;;21.40;60.90;;;;;;5096572;28;20843;-70
2022/05/02 13:23:08;;;;;;;7.00;6.40;;;21.40;61.70;;;;;;5095953;28;20952;-70
2022/05/02 13:25:52;;;;;;;7.23;6.53;;;21.60;60.70;;;;;;5096685;28;20459;-70
2022/05/02 13:28:25;;;;;;;6.47;5.97;;;21.80;60.10;;;;;;5097287;28;20438;-70